Vansant, VA (24656)

3:12 PM EST on December 02, 2016 (GMT -0500)
Southwest Virginia, 4 miles SSE | | Change Station

Elev 2650 ft 37.02 °N, 82.32 °W | Updated 11 minutes ago

Clear
Clear
43.8 °F
Feels Like 41 °F
N
5.0
Wind Variable Wind from WNW
Gusts 18.0 mph

Today
High -- | Low -- °F
--% Chance of Precip.
Yesterday
High -- | Low -- °F
Precip. -- in
Pressure 30.11 in
Visibility 10.0 miles
Clouds Clear
Windchill 41 °F
Dew Point 29 °F
Humidity 55%
Rainfall Not available.
Snow Depth Not available.
7:24 AM 5:11 PM
Waxing Crescent, 10% visible
METAR KJFZ 021955Z AUTO 31011G15KT 270V330 10SM CLR 07/M03 A3011 RMK AO2 T00701027
Pressure 30.11 in
Visibility 10.0 miles
Clouds Clear
Windchill 41 °F
Dew Point 29 °F
Humidity 55%
Rainfall Not available.
Snow Depth Not available.
7:24 AM 5:11 PM
Waxing Crescent, 10% visible
METAR KJFZ 021955Z AUTO 31011G15KT 270V330 10SM CLR 07/M03 A3011 RMK AO2 T00701027

10-Day Weather Forecast

Almanac

Astronomy

Dec. 02, 2016 Rise Set
Actual Time
Civil Twilight
Nautical Twilight
Astronomical Twilight
Moon
Length of Visible Light
Length of Day
Tomorrow will be .
, % of the Moon is Illuminated

Today's Extremes

State Highs State Lows

Community

WunderPhotos

Upload Photos

1,955,348 photos uploaded!

WunderBlog® & News

Nearby

Air Quality

  Air Quality AQ Index Pollutant
Not available.

Snow Depth

Station Depth Elevation

Earthquake Activity

City Distance Mag. Time & Date
Minimum magnitude displayed is 2.5.

Coastal Water Temperatures

Place Temperature

Stations

Nearby Weather Stations

Station Location Temp. Windchill Dew Point Humidity Wind Precip. Elev Updated Type
                   

Watches & Warnings

There are currently no watches in effect.